Time;durP1;ratioP1;P1;durP2;ratioP2;P2;SDS_P1;SDS_P2;PMS_P1;PMS_P2;Temp;Humidity;BMP_temperature;BMP_pressure;BME280_temperature;BME280_humidity;BME280_pressure;Samples;Min_cycle;Max_cycle;Signal;HPM_P1;HPM_P2
2023/12/22 00:00:05;;;;;;;7.18;3.58;;;;;;;2.02;82.96;97197.00;5089947;28;20159;-60
2023/12/22 00:02:32;;;;;;;8.45;3.28;;;;;;;1.92;83.03;97189.72;5080508;28;20097;-59
2023/12/22 00:04:58;;;;;;;6.40;3.10;;;;;;;2.10;83.15;97220.56;5075182;28;20036;-60
2023/12/22 00:07:24;;;;;;;5.53;2.83;;;;;;;2.08;83.48;97222.38;5075879;28;20051;-60
2023/12/22 00:09:50;;;;;;;6.80;3.38;;;;;;;2.05;83.75;97212.22;5073522;28;20036;-60
2023/12/22 00:12:16;;;;;;;7.70;3.45;;;;;;;1.84;83.48;97181.50;5075104;28;20567;-60
2023/12/22 00:14:42;;;;;;;6.72;3.20;;;;;;;1.80;83.73;97175.69;5075299;28;20037;-59
2023/12/22 00:17:08;;;;;;;6.18;3.38;;;;;;;2.05;83.54;97212.22;5075038;28;20470;-60
2023/12/22 00:19:34;;;;;;;7.88;3.60;;;;;;;2.01;83.41;97204.72;5070143;28;20049;-60
2023/12/22 00:21:59;;;;;;;7.38;3.72;;;;;;;1.81;83.38;97173.94;5074162;28;20043;-60
2023/12/22 00:24:25;;;;;;;10.05;3.88;;;;;;;2.07;83.69;97207.03;5056763;28;20430;-60
2023/12/22 00:26:51;;;;;;;8.35;3.88;;;;;;;2.07;83.52;97199.34;5072162;28;20064;-61
2023/12/22 00:29:17;;;;;;;5.45;2.35;;;;;;;2.09;83.22;97198.38;5075412;28;20045;-61
2023/12/22 00:31:43;;;;;;;6.88;3.40;;;;;;;2.10;82.94;97192.38;5066652;28;20044;-60
2023/12/22 00:34:09;;;;;;;4.70;3.13;;;;;;;1.60;82.08;97120.13;5083239;28;20048;-59
2023/12/22 00:36:35;;;;;;;6.63;3.10;;;;;;;2.04;82.19;97189.25;5073460;28;20062;-60
2023/12/22 00:39:00;;;;;;;5.50;3.70;;;;;;;1.99;81.99;97186.84;5090175;28;20504;-59
2023/12/22 00:41:27;;;;;;;8.02;3.38;;;;;;;1.97;81.85;97180.13;5074327;28;20424;-60
2023/12/22 00:43:53;;;;;;;7.70;3.40;;;;;;;2.01;81.51;97191.91;5074542;28;20056;-60
2023/12/22 00:46:19;;;;;;;8.80;3.30;;;;;;;1.97;81.32;97198.06;5059403;28;20048;-60
2023/12/22 00:48:46;;;;;;;8.23;3.83;;;;;;;1.76;81.08;97158.78;5073379;28;20135;-61
2023/12/22 00:51:11;;;;;;;5.72;2.95;;;;;;;1.91;81.16;97196.56;5074575;28;20531;-60
2023/12/22 00:53:37;;;;;;;7.18;3.33;;;;;;;1.93;80.59;97192.25;5072792;28;20077;-62
2023/12/22 00:56:04;;;;;;;8.48;3.38;;;;;;;1.89;80.57;97190.66;5072724;28;20044;-59
2023/12/22 00:58:30;;;;;;;6.47;2.83;;;;;;;1.89;80.60;97189.84;5073453;28;20040;-61
2023/12/22 01:00:56;;;;;;;7.25;3.28;;;;;;;1.62;80.07;97143.94;5074307;28;20550;-61
2023/12/22 01:03:22;;;;;;;7.50;3.28;;;;;;;1.58;79.54;97144.13;5073912;28;20040;-61
2023/12/22 01:05:48;;;;;;;8.85;2.92;;;;;;;1.54;79.16;97145.13;5078203;28;20043;-61
2023/12/22 01:08:14;;;;;;;6.20;3.00;;;;;;;1.77;78.93;97185.22;5070846;28;20091;-61
2023/12/22 01:10:40;;;;;;;9.82;3.38;;;;;;;1.74;78.22;97183.59;5073705;28;20576;-60
2023/12/22 01:13:06;;;;;;;6.25;2.80;;;;;;;1.75;78.02;97181.88;5072949;28;20051;-61
2023/12/22 01:15:32;;;;;;;6.88;3.28;;;;;;;1.75;77.47;97182.72;5073126;28;20067;-58
2023/12/22 01:17:58;;;;;;;6.80;2.92;;;;;;;1.48;77.85;97133.41;5058126;28;20423;-60
2023/12/22 01:20:24;;;;;;;7.00;3.15;;;;;;;1.75;77.48;97182.72;5073818;28;20042;-61
2023/12/22 01:22:50;;;;;;;5.13;2.70;;;;;;;1.79;77.28;97181.69;5070898;28;20044;-61
2023/12/22 01:25:16;;;;;;;5.13;2.33;;;;;;;1.82;77.30;97191.00;5071047;28;20033;-61
2023/12/22 01:27:41;;;;;;;6.20;2.83;;;;;;;1.79;76.93;97179.13;5069722;28;21172;-61
2023/12/22 01:30:08;;;;;;;6.50;2.88;;;;;;;1.91;76.82;97190.63;5072961;28;20082;-61
2023/12/22 01:32:36;;;;;;;6.18;2.97;;;;;;;1.92;76.30;97185.44;5073576;28;20081;-61
2023/12/22 01:35:09;;;;;;;4.75;2.58;;;;;;;1.94;75.70;97175.94;5077935;28;20040;-60
2023/12/22 01:37:38;;;;;;;9.10;2.97;;;;;;;1.92;75.41;97164.94;5071985;28;20495;-59
2023/12/22 01:40:05;;;;;;;5.18;2.55;;;;;;;1.75;75.23;97138.34;5075352;28;20075;-60
2023/12/22 01:42:31;;;;;;;4.15;2.35;;;;;;;2.00;75.00;97169.75;5072129;28;20036;-61
2023/12/22 01:44:57;;;;;;;6.22;2.58;;;;;;;2.04;74.77;97158.50;5073784;28;20044;-60
2023/12/22 01:47:23;;;;;;;6.18;2.83;;;;;;;2.10;74.57;97169.31;5070470;28;20408;-60
2023/12/22 01:49:49;;;;;;;5.30;3.03;;;;;;;2.12;74.54;97174.38;5084043;28;20545;-58
2023/12/22 01:52:16;;;;;;;8.45;3.35;;;;;;;2.10;74.34;97163.34;5070253;28;20048;-59
2023/12/22 01:54:42;;;;;;;8.02;3.08;;;;;;;2.16;74.24;97165.66;5073220;28;20032;-61
2023/12/22 01:57:10;;;;;;;6.90;3.33;;;;;;;1.75;73.82;97098.19;5072422;28;20063;-60
2023/12/22 01:59:36;;;;;;;7.78;3.58;;;;;;;2.20;73.95;97162.06;5072079;28;20149;-60
2023/12/22 02:02:02;;;;;;;6.63;3.17;;;;;;;2.22;74.34;97156.91;5072744;28;20418;-60
2023/12/22 02:04:30;;;;;;;6.93;2.83;;;;;;;2.21;74.10;97168.88;5073574;28;20071;-61
2023/12/22 02:07:01;;;;;;;8.32;3.97;;;;;;;2.20;74.27;97158.72;5072679;28;20048;-59
2023/12/22 02:09:27;;;;;;;8.48;3.30;;;;;;;2.14;74.75;97157.22;5071376;28;20071;-60
2023/12/22 02:11:53;;;;;;;7.00;3.17;;;;;;;2.18;74.64;97163.88;5074733;28;20122;-60
2023/12/22 02:14:20;;;;;;;6.30;3.35;;;;;;;1.72;74.74;97082.13;5071524;28;20043;-59
2023/12/22 02:17:06;;;;;;;6.57;3.08;;;;;;;1.90;75.26;97114.66;5052195;28;20459;-60
2023/12/22 02:19:43;;;;;;;6.15;3.05;;;;;;;2.15;75.49;97152.94;5052254;28;20424;-60
2023/12/22 02:22:11;;;;;;;6.47;2.88;;;;;;;2.13;75.39;97158.97;5066528;28;20203;-61
2023/12/22 02:24:41;;;;;;;7.65;3.40;;;;;;;2.18;75.77;97153.63;5071225;28;20835;-61
2023/12/22 02:27:22;;;;;;;5.78;3.00;;;;;;;2.25;75.70;97146.53;5072500;28;20035;-60
2023/12/22 02:29:52;;;;;;;7.00;3.53;;;;;;;2.29;75.28;97150.63;5070346;28;20048;-59
2023/12/22 02:32:24;;;;;;;5.50;3.25;;;;;;;2.33;75.15;97139.34;5073762;28;20082;-60
2023/12/22 02:34:52;;;;;;;6.15;3.17;;;;;;;2.18;75.30;97111.78;5072580;28;20051;-61
2023/12/22 02:37:20;;;;;;;8.48;3.42;;;;;;;2.39;74.73;97147.59;5070095;28;20048;-60
2023/12/22 02:39:47;;;;;;;9.43;4.35;;;;;;;2.39;74.76;97157.03;5058346;28;20049;-59
2023/12/22 02:42:13;;;;;;;7.15;2.75;;;;;;;2.18;74.41;97099.81;5076602;28;20531;-61
2023/12/22 02:44:39;;;;;;;9.25;3.67;;;;;;;2.42;74.49;97131.25;5056602;28;20463;-60
2023/12/22 02:47:05;;;;;;;8.13;3.95;;;;;;;2.47;74.55;97142.13;5078127;28;20052;-59
2023/12/22 02:49:31;;;;;;;7.28;3.42;;;;;;;2.48;74.39;97144.66;5067316;28;20085;-58
2023/12/22 02:51:57;;;;;;;5.80;3.00;;;;;;;2.26;74.36;97089.22;5079185;28;20036;-60
2023/12/22 02:54:23;;;;;;;9.65;3.75;;;;;;;2.53;74.30;97126.50;5062797;28;20097;-60
2023/12/22 02:56:48;;;;;;;13.57;3.53;;;;;;;2.50;73.99;97122.34;5074448;28;20187;-60
2023/12/22 02:59:14;;;;;;;6.97;3.65;;;;;;;2.50;74.25;97122.34;5054134;28;20051;-61
2023/12/22 03:01:40;;;;;;;8.80;4.13;;;;;;;2.52;74.50;97117.97;5088346;28;20036;-59
2023/12/22 03:04:06;;;;;;;9.95;3.72;;;;;;;2.49;74.52;97114.72;5072837;28;20044;-61
2023/12/22 03:06:32;;;;;;;8.38;3.42;;;;;;;2.43;74.81;97115.81;5071500;28;20038;-60
2023/12/22 03:08:58;;;;;;;7.18;3.42;;;;;;;2.41;75.04;97116.75;5037879;28;20515;-60
2023/12/22 03:11:23;;;;;;;8.80;3.47;;;;;;;2.38;75.09;97102.34;5084037;28;20164;-60
2023/12/22 03:13:49;;;;;;;8.18;3.88;;;;;;;2.36;75.41;97108.44;5078372;28;20040;-61
2023/12/22 03:16:15;;;;;;;6.97;3.13;;;;;;;2.37;75.52;97116.06;5077310;28;20070;-60
2023/12/22 03:18:41;;;;;;;8.68;4.10;;;;;;;2.34;75.97;97113.66;5075546;28;20044;-60
2023/12/22 03:21:07;;;;;;;9.98;4.72;;;;;;;2.37;76.00;97110.09;5074962;28;20135;-61
2023/12/22 03:23:32;;;;;;;7.80;3.72;;;;;;;2.39;76.00;97113.44;5074838;28;20055;-60
2023/12/22 03:26:03;;;;;;;7.28;3.80;;;;;;;2.38;76.23;97124.59;5071035;28;20033;-60
2023/12/22 03:28:28;;;;;;;7.75;3.28;;;;;;;2.35;75.70;97132.44;5074934;28;20093;-60
2023/12/22 03:30:54;;;;;;;6.47;3.63;;;;;;;2.30;76.02;97118.97;5073442;28;20048;-59
2023/12/22 03:33:20;;;;;;;7.10;3.17;;;;;;;1.93;75.78;97058.19;5072937;28;20047;-58
2023/12/22 03:35:46;;;;;;;7.90;3.40;;;;;;;2.33;76.16;97123.97;5075364;28;20465;-60
2023/12/22 03:38:11;;;;;;;6.22;2.95;;;;;;;2.20;76.43;97110.81;5077992;28;20047;-61
2023/12/22 03:40:38;;;;;;;7.00;3.78;;;;;;;2.29;76.32;97112.19;5069171;28;20579;-60
2023/12/22 03:43:04;;;;;;;7.85;3.60;;;;;;;2.35;76.49;97119.63;5073237;28;20085;-60
2023/12/22 03:45:29;;;;;;;6.80;3.75;;;;;;;2.35;76.21;97123.00;5078642;28;20423;-61
2023/12/22 03:47:55;;;;;;;8.43;4.13;;;;;;;2.32;76.42;97123.13;5076273;28;20051;-59
2023/12/22 03:50:21;;;;;;;7.95;4.30;;;;;;;2.30;76.43;97111.28;5074749;28;20047;-61
2023/12/22 03:52:47;;;;;;;7.07;3.92;;;;;;;2.09;76.63;97088.22;5074508;28;20044;-61
2023/12/22 03:55:13;;;;;;;6.40;3.63;;;;;;;2.33;76.88;97108.59;5078722;28;20069;-60
2023/12/22 03:57:39;;;;;;;9.02;4.10;;;;;;;2.28;76.79;97102.81;5051307;28;20072;-61
2023/12/22 04:00:05;;;;;;;8.20;4.32;;;;;;;2.22;76.79;97098.78;5071780;28;20049;-61
2023/12/22 04:02:32;;;;;;;7.28;3.65;;;;;;;2.00;76.91;97067.28;5077379;28;20050;-60
2023/12/22 04:04:58;;;;;;;7.85;4.22;;;;;;;2.14;77.22;97075.22;5077754;28;20038;-61
2023/12/22 04:07:24;;;;;;;8.23;4.28;;;;;;;2.22;77.15;97085.97;5076937;28;20119;-60
2023/12/22 04:09:50;;;;;;;5.68;3.03;;;;;;;2.22;76.86;97100.50;5083661;28;20097;-60
2023/12/22 04:12:15;;;;;;;9.50;4.22;;;;;;;2.16;77.00;97099.03;5076958;28;20044;-63
2023/12/22 04:14:41;;;;;;;8.85;4.45;;;;;;;2.20;76.91;97086.94;5072896;28;20040;-61
2023/12/22 04:17:07;;;;;;;7.35;3.85;;;;;;;2.21;77.01;97091.16;5080944;28;20048;-61
2023/12/22 04:19:33;;;;;;;5.18;3.22;;;;;;;2.22;76.99;97087.69;5077552;28;20043;-60
2023/12/22 04:21:59;;;;;;;8.13;3.50;;;;;;;2.14;76.89;97072.66;5085825;28;20066;-62
2023/12/22 04:24:25;;;;;;;8.45;4.40;;;;;;;2.09;77.14;97060.03;5081688;28;20583;-60
2023/12/22 04:26:51;;;;;;;8.27;4.30;;;;;;;2.21;77.43;97078.34;5082834;28;20051;-62
2023/12/22 04:29:17;;;;;;;8.20;4.07;;;;;;;1.98;77.23;97052.00;5084579;28;20135;-61
2023/12/22 04:31:43;;;;;;;8.68;3.88;;;;;;;2.11;77.25;97067.66;5082707;28;20044;-62
2023/12/22 04:34:09;;;;;;;11.02;4.63;;;;;;;1.83;77.61;97026.19;5066755;28;20047;-65
2023/12/22 04:36:35;;;;;;;9.35;3.70;;;;;;;1.88;77.74;97040.47;5083454;28;20624;-62
2023/12/22 04:39:01;;;;;;;7.05;2.97;;;;;;;2.04;77.68;97066.28;5077961;28;20123;-62
2023/12/22 04:41:27;;;;;;;7.32;3.55;;;;;;;2.02;77.55;97068.06;5072593;28;20064;-63
2023/12/22 04:43:53;;;;;;;5.55;3.28;;;;;;;2.00;77.58;97057.84;5071850;28;20031;-61
2023/12/22 04:46:19;;;;;;;7.60;3.42;;;;;;;1.95;77.41;97054.66;5078849;28;20080;-59
2023/12/22 04:48:45;;;;;;;8.05;3.50;;;;;;;1.99;77.47;97050.25;5086803;28;20121;-62
2023/12/22 04:51:11;;;;;;;7.07;3.65;;;;;;;2.01;77.71;97046.72;5085706;28;20082;-62
2023/12/22 04:53:36;;;;;;;10.13;5.10;;;;;;;2.01;77.46;97041.59;5063031;28;20040;-60
2023/12/22 04:56:03;;;;;;;9.35;4.80;;;;;;;2.00;77.48;97041.66;5081853;28;20392;-61
2023/12/22 04:58:29;;;;;;;9.73;4.28;;;;;;;2.01;76.99;97043.31;5083808;28;20591;-62
2023/12/22 05:00:55;;;;;;;8.77;3.75;;;;;;;2.05;76.94;97044.84;5084648;28;20044;-62
2023/12/22 05:03:21;;;;;;;7.43;3.55;;;;;;;2.02;77.01;97055.25;5070251;28;20419;-60
2023/12/22 05:05:46;;;;;;;16.05;4.90;;;;;;;2.00;77.14;97045.03;5070178;28;20043;-63
2023/12/22 05:08:12;;;;;;;5.28;2.78;;;;;;;1.98;77.24;97030.66;5058126;28;20044;-61
2023/12/22 05:10:38;;;;;;;9.05;4.20;;;;;;;1.79;77.05;96997.28;5069443;28;20040;-63
2023/12/22 05:13:04;;;;;;;7.70;4.25;;;;;;;2.06;77.03;97049.09;5081053;28;20031;-67
2023/12/22 05:15:30;;;;;;;7.15;3.80;;;;;;;2.03;77.22;97054.34;5067840;28;20067;-63
2023/12/22 05:17:55;;;;;;;7.82;4.57;;;;;;;2.03;76.91;97046.66;5047362;28;20036;-60
2023/12/22 05:20:21;;;;;;;10.63;5.20;;;;;;;2.05;76.86;97044.84;5080903;28;20062;-60
2023/12/22 05:22:47;;;;;;;7.93;3.97;;;;;;;1.99;77.04;97047.69;5064307;28;20064;-61
2023/12/22 05:25:13;;;;;;;9.18;3.78;;;;;;;2.02;77.02;97050.13;5064096;28;20464;-61
2023/12/22 05:27:41;;;;;;;9.18;4.65;;;;;;;1.98;77.30;97038.34;5062813;28;20051;-61
2023/12/22 05:30:07;;;;;;;8.85;4.60;;;;;;;2.03;77.03;97037.25;5046598;28;20533;-61
2023/12/22 05:32:33;;;;;;;15.15;4.68;;;;;;;2.04;77.08;97045.78;5066897;28;20128;-61
2023/12/22 05:34:59;;;;;;;8.55;4.28;;;;;;;1.99;77.17;97043.38;5068846;28;20078;-62
2023/12/22 05:37:25;;;;;;;11.10;4.47;;;;;;;2.01;77.11;97045.88;5051287;28;20059;-61
2023/12/22 05:39:51;;;;;;;9.25;4.57;;;;;;;2.03;77.21;97051.78;5069175;28;20087;-62
2023/12/22 05:42:17;;;;;;;10.60;4.75;;;;;;;2.10;77.22;97050.59;5067525;28;20487;-59
2023/12/22 05:44:43;;;;;;;7.18;3.83;;;;;;;2.05;77.29;97050.81;5067415;28;20068;-61
2023/12/22 05:47:10;;;;;;;8.35;3.85;;;;;;;1.72;77.18;97008.72;5068619;28;20040;-61
2023/12/22 05:49:39;;;;;;;6.65;3.72;;;;;;;1.90;77.40;97032.69;5068150;28;20041;-61
2023/12/22 05:52:05;;;;;;;12.57;5.72;;;;;;;1.99;77.24;97045.13;5067311;28;20098;-63
2023/12/22 05:54:31;;;;;;;11.50;5.32;;;;;;;2.00;77.68;97036.53;5068446;28;20052;-61
2023/12/22 05:56:57;;;;;;;10.30;5.10;;;;;;;2.04;77.81;97048.34;5068417;28;20139;-61
2023/12/22 05:59:23;;;;;;;13.02;5.43;;;;;;;2.04;77.50;97086.75;5068575;28;20119;-61
2023/12/22 06:01:53;;;;;;;13.55;5.55;;;;;;;1.98;77.58;97044.31;5050198;28;20075;-60
2023/12/22 06:04:19;;;;;;;12.32;6.00;;;;;;;1.76;77.67;97010.25;5081761;28;20519;-61
2023/12/22 06:06:45;;;;;;;14.40;5.90;;;;;;;1.98;77.53;97044.31;5088517;28;20050;-62
2023/12/22 06:09:12;;;;;;;14.95;5.32;;;;;;;1.99;77.90;97056.19;5070312;28;20047;-63
2023/12/22 06:11:39;;;;;;;14.52;6.63;;;;;;;1.91;77.76;97044.63;5074423;28;20072;-61
2023/12/22 06:14:05;;;;;;;16.02;6.47;;;;;;;1.86;78.24;97055.06;5067237;28;20044;-60
2023/12/22 06:16:31;;;;;;;13.77;5.93;;;;;;;1.77;78.53;97052.03;5067028;28;20049;-62
2023/12/22 06:18:57;;;;;;;12.93;6.05;;;;;;;1.79;78.84;97047.69;5070630;28;20090;-62
2023/12/22 06:21:23;;;;;;;16.48;6.97;;;;;;;1.78;79.10;97056.28;5066734;28;20041;-62
2023/12/22 06:23:50;;;;;;;15.98;7.50;;;;;;;1.78;78.99;97056.28;5073209;28;20524;-61
2023/12/22 06:26:16;;;;;;;16.27;7.10;;;;;;;1.61;79.00;97019.41;5071914;28;20094;-61
2023/12/22 06:28:41;;;;;;;14.85;7.20;;;;;;;1.79;79.18;97051.06;5068022;28;20036;-61
2023/12/22 06:31:09;;;;;;;12.23;6.25;;;;;;;1.58;79.37;97009.28;5066695;28;20814;-61
2023/12/22 06:33:35;;;;;;;14.15;6.85;;;;;;;1.65;78.89;97014.97;5066924;28;20045;-61
2023/12/22 06:36:01;;;;;;;15.65;7.25;;;;;;;1.88;79.15;97049.88;5068058;28;20435;-62
2023/12/22 06:38:27;;;;;;;14.18;6.72;;;;;;;1.90;79.02;97048.91;5068168;28;20086;-61
2023/12/22 06:40:55;;;;;;;12.70;5.85;;;;;;;1.74;78.88;97013.75;5075284;28;20068;-62
2023/12/22 06:43:20;;;;;;;11.13;5.57;;;;;;;2.02;78.55;97057.81;5068059;28;20078;-61
2023/12/22 06:45:47;;;;;;;14.73;7.32;;;;;;;2.06;78.71;97056.78;5071440;28;20060;-61
2023/12/22 06:48:13;;;;;;;12.93;6.38;;;;;;;2.12;78.29;97075.28;5070516;28;20040;-60
2023/12/22 06:50:39;;;;;;;18.25;8.65;;;;;;;2.09;78.37;97062.59;5071798;28;20052;-61
2023/12/22 06:53:05;;;;;;;11.82;5.50;;;;;;;2.06;78.38;97059.34;5070378;28;20048;-61
2023/12/22 06:55:31;;;;;;;15.23;7.43;;;;;;;2.05;78.04;97053.38;5062445;28;20741;-61
2023/12/22 06:57:57;;;;;;;12.50;5.88;;;;;;;2.09;78.16;97064.34;5092033;28;20128;-62
2023/12/22 07:00:22;;;;;;;11.48;5.60;;;;;;;1.84;77.91;97046.59;5073856;28;20553;-62
2023/12/22 07:02:48;;;;;;;14.60;6.85;;;;;;;1.99;78.10;97050.25;5092053;28;20515;-61
2023/12/22 07:05:23;;;;;;;14.32;7.05;;;;;;;2.05;78.21;97058.50;5084032;28;20455;-62
2023/12/22 07:07:50;;;;;;;10.27;6.20;;;;;;;1.62;78.11;96972.38;5087158;28;20056;-62
2023/12/22 07:10:16;;;;;;;13.55;6.72;;;;;;;2.15;77.90;97064.06;5071964;28;20075;-62
2023/12/22 07:12:44;;;;;;;15.80;7.03;;;;;;;1.90;78.02;97018.16;5071041;28;20043;-61
2023/12/22 07:15:10;;;;;;;11.50;6.13;;;;;;;1.90;77.92;97030.97;5072159;28;20032;-60
2023/12/22 07:17:36;;;;;;;10.50;4.95;;;;;;;2.13;77.54;97071.00;5072083;28;20044;-61
2023/12/22 07:20:03;;;;;;;14.00;6.20;;;;;;;1.62;77.48;96984.41;5071663;28;20085;-62
2023/12/22 07:22:31;;;;;;;12.67;6.13;;;;;;;2.11;77.72;97062.53;5071186;28;20098;-62
2023/12/22 07:24:56;;;;;;;13.45;6.35;;;;;;;1.89;77.50;97021.63;5070519;28;20299;-62
2023/12/22 07:27:22;;;;;;;11.32;5.90;;;;;;;2.16;77.63;97067.44;5085156;28;20047;-61
2023/12/22 07:29:48;;;;;;;10.52;5.18;;;;;;;2.17;77.63;97059.72;5091487;28;20040;-61
2023/12/22 07:32:14;;;;;;;12.05;5.32;;;;;;;2.03;77.43;97056.91;5084388;28;20044;-61
2023/12/22 07:34:40;;;;;;;22.17;7.47;;;;;;;2.05;77.55;97047.41;5070055;28;20043;-63
2023/12/22 07:37:06;;;;;;;10.70;5.45;;;;;;;2.17;77.60;97064.84;5071785;28;20040;-60
2023/12/22 07:39:32;;;;;;;10.55;5.15;;;;;;;2.06;77.49;97049.91;5069680;28;20043;-61
2023/12/22 07:41:58;;;;;;;8.88;4.28;;;;;;;2.10;77.56;97069.38;5069515;28;20050;-61
2023/12/22 07:44:24;;;;;;;12.70;5.88;;;;;;;1.88;77.72;97029.38;5070869;28;20043;-61
2023/12/22 07:46:59;;;;;;;10.40;5.13;;;;;;;1.90;77.53;97020.72;5070670;28;20043;-61
2023/12/22 07:49:27;;;;;;;12.07;5.80;;;;;;;2.18;77.37;97040.88;5069525;28;20048;-62
2023/12/22 07:51:53;;;;;;;12.15;6.03;;;;;;;2.25;77.43;97042.25;5049634;28;20048;-61
2023/12/22 07:54:19;;;;;;;13.48;6.15;;;;;;;2.43;77.19;97058.56;5090818;28;20044;-60
2023/12/22 07:56:45;;;;;;;11.45;6.45;;;;;;;2.65;76.86;97012.31;5075901;28;20047;-62
2023/12/22 07:59:11;;;;;;;10.98;5.53;;;;;;;2.92;75.46;97029.81;5069919;28;20032;-61
2023/12/22 08:01:37;;;;;;;12.20;5.28;;;;;;;3.08;75.24;97052.22;5069509;28;20036;-62
2023/12/22 08:04:04;;;;;;;9.93;5.10;;;;;;;2.77;74.11;96981.81;5070709;28;20044;-61
2023/12/22 08:06:30;;;;;;;7.88;4.15;;;;;;;2.98;73.26;97051.81;5069020;28;20040;-60
2023/12/22 08:08:56;;;;;;;10.02;5.18;;;;;;;2.77;73.10;97025.41;5035631;28;20500;-61
2023/12/22 08:11:25;;;;;;;10.25;4.45;;;;;;;2.77;73.27;97033.09;5069278;28;20109;-61
2023/12/22 08:13:51;;;;;;;10.15;5.93;;;;;;;3.01;72.96;97030.28;5070729;28;20040;-61
2023/12/22 08:16:17;;;;;;;9.32;5.45;;;;;;;3.23;72.45;97024.09;5070302;28;20044;-63
2023/12/22 08:18:43;;;;;;;9.43;4.88;;;;;;;3.33;71.93;97011.63;5068963;28;20067;-60
2023/12/22 08:21:08;;;;;;;10.15;5.35;;;;;;;3.63;71.53;97017.84;5070286;28;20162;-62
2023/12/22 08:23:34;;;;;;;8.82;5.70;;;;;;;3.86;70.40;96992.75;5068852;28;20094;-62
2023/12/22 08:26:00;;;;;;;12.57;5.78;;;;;;;4.35;70.04;96997.00;5075495;28;20795;-61
2023/12/22 08:28:26;;;;;;;9.25;4.60;;;;;;;4.63;69.44;97009.25;5068543;28;20044;-61
2023/12/22 08:30:52;;;;;;;11.23;6.03;;;;;;;4.55;67.62;97004.50;5068480;28;20040;-62
2023/12/22 08:33:18;;;;;;;10.07;5.25;;;;;;;4.15;67.54;96959.47;5070039;28;20045;-62
2023/12/22 08:35:44;;;;;;;11.10;5.15;;;;;;;3.82;67.17;96927.84;5068805;28;20036;-61
2023/12/22 08:38:10;;;;;;;7.97;4.75;;;;;;;4.15;67.34;97015.22;5068923;28;20629;-62
2023/12/22 08:40:36;;;;;;;10.93;5.35;;;;;;;4.05;67.10;97001.16;5052429;28;20067;-61
2023/12/22 08:43:02;;;;;;;10.18;5.18;;;;;;;4.10;67.10;96997.47;5068662;28;20036;-61
2023/12/22 08:45:28;;;;;;;11.38;4.93;;;;;;;3.98;66.17;96992.94;5069927;28;20043;-61
2023/12/22 08:47:55;;;;;;;8.35;4.18;;;;;;;3.89;66.55;96990.00;5069854;28;20066;-62
2023/12/22 08:50:21;;;;;;;9.68;4.93;;;;;;;3.91;66.54;96975.34;5068465;28;20127;-61
2023/12/22 08:52:47;;;;;;;8.77;4.60;;;;;;;3.90;66.95;96960.84;5067979;28;20036;-61
2023/12/22 08:55:13;;;;;;;10.68;5.68;;;;;;;4.21;66.32;96992.59;5069388;28;20037;-58
2023/12/22 08:57:39;;;;;;;9.27;4.88;;;;;;;4.48;65.82;96989.47;5069399;28;20036;-61
2023/12/22 09:00:06;;;;;;;8.65;4.90;;;;;;;4.70;64.84;96953.97;5068101;28;20135;-60
2023/12/22 09:02:32;;;;;;;11.93;5.57;;;;;;;4.89;64.06;96957.19;5069326;28;20044;-61
2023/12/22 09:04:58;;;;;;;9.38;5.28;;;;;;;5.20;63.11;96960.63;5068137;28;20048;-61
2023/12/22 09:07:24;;;;;;;8.60;4.80;;;;;;;5.27;62.41;96964.53;5067601;28;20052;-62
2023/12/22 09:09:50;;;;;;;9.93;5.30;;;;;;;4.92;61.87;96961.34;5069475;28;20573;-62
2023/12/22 09:12:16;;;;;;;8.23;4.40;;;;;;;5.07;61.93;97002.53;5070782;28;20450;-62
2023/12/22 09:14:42;;;;;;;7.97;4.45;;;;;;;4.82;61.97;97003.94;5069590;28;20063;-61
2023/12/22 09:17:08;;;;;;;7.68;4.13;;;;;;;4.73;61.98;97010.41;5071147;28;20044;-61
2023/12/22 09:19:34;;;;;;;9.27;5.47;;;;;;;4.76;62.17;97007.69;5069911;28;20117;-61
2023/12/22 09:22:00;;;;;;;12.52;5.82;;;;;;;4.98;61.89;96999.59;5067456;28;20044;-61
2023/12/22 09:24:26;;;;;;;10.38;5.90;;;;;;;4.76;61.91;96935.63;5068706;28;20415;-62
2023/12/22 09:26:52;;;;;;;18.38;7.85;;;;;;;5.11;61.21;96990.31;5074419;28;20042;-63
2023/12/22 09:29:18;;;;;;;14.18;6.50;;;;;;;5.41;61.31;96990.31;5067484;28;20633;-61
2023/12/22 09:31:43;;;;;;;12.27;6.95;;;;;;;5.09;60.52;96986.97;5052550;28;20040;-62
2023/12/22 09:34:09;;;;;;;11.52;6.20;;;;;;;5.21;61.25;96985.47;5068629;28;20131;-61
2023/12/22 09:36:35;;;;;;;11.63;7.18;;;;;;;5.37;60.92;96975.97;5067465;28;20048;-61
2023/12/22 09:39:01;;;;;;;17.92;7.57;;;;;;;5.50;60.45;96985.47;5067528;28;20039;-60
2023/12/22 09:41:28;;;;;;;14.57;7.50;;;;;;;5.49;60.21;96967.53;5053566;28;20092;-61
2023/12/22 09:43:56;;;;;;;14.73;6.53;;;;;;;5.83;59.57;96971.56;5072089;28;20424;-62
2023/12/22 09:46:22;;;;;;;16.00;8.07;;;;;;;6.01;59.13;96972.25;5067201;28;20044;-62
2023/12/22 09:48:49;;;;;;;12.02;6.30;;;;;;;6.06;58.56;96965.09;5067138;28;20040;-61
2023/12/22 09:51:16;;;;;;;13.48;6.88;;;;;;;5.86;58.32;96972.19;5067082;28;20133;-60
2023/12/22 09:53:44;;;;;;;13.38;6.85;;;;;;;5.18;58.94;96978.75;5050935;28;20465;-62
2023/12/22 09:56:10;;;;;;;13.73;6.97;;;;;;;4.43;60.02;96946.00;5067982;28;20066;-61
2023/12/22 09:58:36;;;;;;;17.50;8.30;;;;;;;4.02;60.82;96912.22;5059321;28;20147;-62
2023/12/22 10:01:05;;;;;;;17.67;8.50;;;;;;;4.45;61.14;96976.78;5067127;28;20038;-61
2023/12/22 10:03:33;;;;;;;15.57;7.93;;;;;;;4.30;61.23;96939.00;5067414;28;20059;-62
2023/12/22 10:05:59;;;;;;;15.75;7.50;;;;;;;4.47;61.46;96969.81;5067198;28;20048;-62
2023/12/22 10:08:26;;;;;;;16.27;8.23;;;;;;;4.20;61.76;96936.09;5067849;28;20553;-62
2023/12/22 10:10:53;;;;;;;17.38;7.45;;;;;;;4.20;61.82;96960.06;5068201;28;20044;-62
2023/12/22 10:13:19;;;;;;;14.77;7.97;;;;;;;3.76;61.86;96879.34;5066926;28;20036;-63
2023/12/22 10:15:46;;;;;;;12.48;6.68;;;;;;;4.26;62.30;96961.50;5068221;28;20680;-63
2023/12/22 10:18:12;;;;;;;16.85;7.88;;;;;;;4.07;62.62;96959.06;5066990;28;20119;-61
2023/12/22 10:20:38;;;;;;;12.90;6.40;;;;;;;4.08;62.78;96950.41;5071781;28;20511;-60
2023/12/22 10:23:05;;;;;;;14.30;7.47;;;;;;;4.08;63.13;96949.63;5054205;28;20470;-62
2023/12/22 10:25:32;;;;;;;14.57;6.53;;;;;;;4.03;62.47;96959.31;5077869;28;20047;-61
2023/12/22 10:27:58;;;;;;;11.80;6.03;;;;;;;3.87;63.06;96936.16;5087548;28;20044;-61
2023/12/22 10:30:24;;;;;;;17.20;8.07;;;;;;;3.61;63.07;96904.06;5072150;28;20036;-63
2023/12/22 10:32:51;;;;;;;13.80;6.85;;;;;;;3.65;62.87;96913.28;5072047;28;20750;-61
2023/12/22 10:35:20;;;;;;;11.05;5.90;;;;;;;3.68;63.27;96937.97;5071078;28;20047;-61
2023/12/22 10:37:46;;;;;;;15.20;6.30;;;;;;;3.55;63.51;96947.22;5072259;28;20047;-62
2023/12/22 10:40:13;;;;;;;13.00;6.32;;;;;;;3.38;63.84;96925.78;5072292;28;20068;-62
2023/12/22 10:42:40;;;;;;;13.20;6.30;;;;;;;3.27;64.38;96938.31;5070785;28;20094;-61
2023/12/22 10:45:07;;;;;;;14.27;7.55;;;;;;;3.29;64.43;96933.94;5071512;28;20525;-61
2023/12/22 10:47:33;;;;;;;11.70;6.32;;;;;;;3.37;64.53;96925.84;5062012;28;20093;-62
2023/12/22 10:50:04;;;;;;;15.63;7.15;;;;;;;3.33;64.64;96919.22;5072210;28;20036;-62
2023/12/22 10:52:31;;;;;;;15.43;7.07;;;;;;;3.27;64.57;96928.03;5071821;28;20040;-62
2023/12/22 10:54:58;;;;;;;12.60;5.97;;;;;;;2.89;65.53;96868.31;5070488;28;20052;-60
2023/12/22 10:57:23;;;;;;;13.85;7.03;;;;;;;3.16;65.15;96899.50;5082422;28;20036;-61
2023/12/22 10:59:51;;;;;;;13.32;6.68;;;;;;;3.29;65.60;96912.56;5073871;28;20039;-61
2023/12/22 11:02:18;;;;;;;14.07;6.10;;;;;;;3.29;65.42;96913.41;5070979;28;20074;-60
2023/12/22 11:05:08;;;;;;;11.63;6.18;;;;;;;3.13;65.78;96909.09;5072250;28;20052;-62
2023/12/22 11:07:35;;;;;;;15.30;6.80;;;;;;;3.01;66.03;96910.53;5065045;28;20443;-62
2023/12/22 11:10:12;;;;;;;13.15;6.35;;;;;;;2.91;66.32;96905.00;5070334;28;20071;-61
2023/12/22 11:12:38;;;;;;;13.10;6.15;;;;;;;2.78;66.36;96873.13;5071333;28;20041;-61
2023/12/22 11:15:06;;;;;;;10.43;5.32;;;;;;;2.98;66.07;96896.09;5071066;28;20063;-61
2023/12/22 11:17:35;;;;;;;12.53;6.03;;;;;;;3.01;66.46;96905.38;5071417;28;20559;-61
2023/12/22 11:20:02;;;;;;;12.02;5.40;;;;;;;2.95;66.60;96903.13;5071263;28;20864;-62
2023/12/22 11:22:31;;;;;;;12.05;5.45;;;;;;;2.90;66.65;96897.38;5070096;28;20041;-62
2023/12/22 11:24:59;;;;;;;13.13;5.45;;;;;;;2.54;66.82;96829.00;5053986;28;20139;-61
2023/12/22 11:27:26;;;;;;;11.57;5.60;;;;;;;2.94;66.71;96897.16;5090121;28;20430;-61
2023/12/22 11:29:53;;;;;;;13.00;5.82;;;;;;;2.32;66.84;96820.66;5078359;28;20093;-62
2023/12/22 11:32:19;;;;;;;11.40;4.75;;;;;;;2.78;67.10;96897.97;5052848;28;20044;-62
2023/12/22 11:34:46;;;;;;;9.15;5.00;;;;;;;2.74;67.29;96917.81;5070123;28;20044;-62